Lubbock, Texas
Current Conditions -  °F | °C
As of 8:53 PM on Friday 24 Oct 2014 (Local Time) from KLBB Reporting Station
Clear Clear  
Wind Chill: 20°   Ceiling: Unl
Heat Index: 20°   Visibility: 10mi
Dew Point: 11°   Wind: 8mph
Humidity: 55%   Direction: 190°S
Pressure: 30.13"   Gusts: NA
Location:  33.59°N, 101.85°W
Report Text: KLBB 250153Z 19007KT 10SM CLR 20/11 A3013 RMK AO2 SLP172 T02000106
Loading
Personal Weather Stations






























Interactive Weather Map
Tropical Storm Tracking
New forecast layout! Learn more

10-Day Weather Forecast

Advertisements
Track Severe Weather on mobile